createdAt,value
2018-09-06T00:00:52.225Z,17.80
2018-09-06T00:03:21.686Z,17.70
2018-09-06T00:05:52.968Z,17.60
2018-09-06T00:08:22.186Z,17.60
2018-09-06T00:10:52.051Z,17.60
2018-09-06T00:13:20.801Z,17.50
2018-09-06T00:15:49.598Z,17.50
2018-09-06T00:18:18.329Z,17.50
2018-09-06T00:20:47.064Z,17.50
2018-09-06T00:23:16.575Z,17.50
2018-09-06T00:25:45.297Z,17.40
2018-09-06T00:28:15.210Z,17.50
2018-09-06T00:30:43.928Z,17.50
2018-09-06T00:33:12.718Z,17.50
2018-09-06T00:35:41.402Z,17.40
2018-09-06T00:38:12.012Z,17.40
2018-09-06T00:40:40.784Z,17.40
2018-09-06T00:43:09.738Z,17.40
2018-09-06T00:45:38.531Z,17.40
2018-09-06T00:48:07.292Z,17.30
2018-09-06T00:50:40.551Z,17.30
2018-09-06T00:53:09.303Z,17.30
2018-09-06T00:55:38.467Z,17.20
2018-09-06T00:58:07.185Z,17.20
2018-09-06T01:00:36.019Z,17.30
2018-09-06T01:03:04.746Z,17.20
2018-09-06T01:05:33.531Z,17.10
2018-09-06T01:08:02.299Z,17.10
2018-09-06T01:10:31.013Z,17.00
2018-09-06T01:12:59.723Z,17.00
2018-09-06T01:15:29.361Z,17.00
2018-09-06T01:17:58.063Z,17.00
2018-09-06T01:20:26.783Z,17.00
2018-09-06T01:22:55.491Z,17.00
2018-09-06T01:25:24.196Z,16.90
2018-09-06T01:27:52.955Z,16.90
2018-09-06T01:30:21.637Z,17.00
2018-09-06T01:32:50.357Z,16.90
2018-09-06T01:35:19.141Z,16.90
2018-09-06T01:37:47.833Z,16.80
2018-09-06T01:40:19.920Z,16.80
2018-09-06T01:42:48.758Z,16.70
2018-09-06T01:45:17.581Z,16.70
2018-09-06T01:47:46.275Z,16.70
2018-09-06T01:50:15.600Z,16.80
2018-09-06T01:52:44.343Z,16.70
2018-09-06T01:55:13.412Z,16.70
2018-09-06T01:57:42.302Z,16.70
2018-09-06T02:00:11.014Z,16.70
2018-09-06T02:02:39.696Z,16.60
2018-09-06T02:05:08.897Z,16.50
2018-09-06T02:07:37.792Z,16.50
2018-09-06T02:11:25.978Z,16.50
2018-09-06T02:13:54.735Z,16.60
2018-09-06T02:16:24.096Z,16.50
2018-09-06T02:18:52.837Z,16.60
2018-09-06T02:21:22.405Z,16.60
2018-09-06T02:23:51.315Z,16.50
2018-09-06T02:26:20.032Z,16.50
2018-09-06T02:28:48.771Z,16.60
2018-09-06T02:31:17.466Z,16.60
2018-09-06T02:33:46.176Z,16.50
2018-09-06T02:36:14.931Z,16.50
2018-09-06T02:38:43.727Z,16.40
2018-09-06T02:41:12.427Z,16.40
2018-09-06T02:43:41.135Z,16.40
2018-09-06T02:46:09.875Z,16.40
2018-09-06T02:48:42.816Z,16.30
2018-09-06T02:51:16.481Z,16.30
2018-09-06T02:53:45.406Z,16.20
2018-09-06T02:56:15.314Z,16.10
2018-09-06T02:58:44.072Z,15.80
2018-09-06T03:01:13.114Z,15.90
2018-09-06T03:03:41.809Z,15.80
2018-09-06T03:06:10.710Z,15.80
2018-09-06T03:08:39.719Z,15.70
2018-09-06T03:11:14.046Z,15.70
2018-09-06T03:13:42.740Z,15.70
2018-09-06T03:16:11.427Z,15.50
2018-09-06T03:18:40.124Z,15.40
2018-09-06T03:21:08.921Z,15.50
2018-09-06T03:23:37.648Z,15.40
2018-09-06T03:26:11.687Z,15.50
2018-09-06T03:28:40.374Z,15.30
2018-09-06T03:31:09.089Z,15.40
2018-09-06T03:33:38.096Z,15.40
2018-09-06T03:36:06.997Z,15.40
2018-09-06T03:38:35.622Z,15.40
2018-09-06T03:41:05.346Z,15.40
2018-09-06T03:43:34.088Z,15.30
2018-09-06T03:46:03.069Z,15.40
2018-09-06T03:48:31.848Z,15.30
2018-09-06T03:51:00.544Z,15.40
2018-09-06T03:53:29.257Z,15.40
2018-09-06T03:55:58.415Z,15.40
2018-09-06T03:58:27.251Z,15.30
2018-09-06T04:00:55.940Z,15.30
2018-09-06T04:03:24.691Z,15.30
2018-09-06T04:05:53.404Z,15.30
2018-09-06T04:08:24.177Z,15.30
2018-09-06T04:10:53.313Z,15.30
2018-09-06T04:13:22.058Z,15.40
2018-09-06T04:15:52.109Z,15.40
2018-09-06T04:18:20.894Z,15.40
2018-09-06T04:20:49.633Z,15.40
2018-09-06T04:23:18.924Z,15.40
2018-09-06T04:25:47.730Z,15.40
2018-09-06T04:28:16.543Z,15.40
2018-09-06T04:30:45.343Z,15.40
2018-09-06T04:33:14.112Z,15.40
2018-09-06T04:37:02.251Z,15.30
2018-09-06T04:39:30.979Z,15.30
2018-09-06T04:41:59.675Z,15.40
2018-09-06T04:44:28.565Z,15.30
2018-09-06T04:46:57.272Z,15.40
2018-09-06T04:49:26.051Z,15.40
2018-09-06T04:51:54.807Z,15.50
2018-09-06T04:54:23.579Z,15.50
2018-09-06T04:56:52.401Z,15.50
2018-09-06T04:59:21.240Z,15.60
2018-09-06T05:01:49.981Z,15.60
2018-09-06T05:04:18.916Z,15.70
2018-09-06T05:06:48.188Z,15.80
2018-09-06T05:09:16.954Z,15.80
2018-09-06T05:11:45.712Z,15.90
2018-09-06T05:14:14.452Z,15.90
2018-09-06T05:16:44.567Z,15.90
2018-09-06T05:19:13.387Z,16.00
2018-09-06T05:21:42.164Z,16.00
2018-09-06T05:24:11.278Z,16.10
2018-09-06T05:26:42.203Z,16.20
2018-09-06T05:29:12.173Z,16.30
2018-09-06T05:31:41.316Z,16.40
2018-09-06T05:34:10.106Z,16.50
2018-09-06T05:36:39.678Z,16.60
2018-09-06T05:39:10.837Z,16.70
2018-09-06T05:41:40.740Z,16.80
2018-09-06T05:44:12.398Z,16.90
2018-09-06T05:46:42.569Z,17.10
2018-09-06T05:49:11.336Z,17.20
2018-09-06T05:51:40.050Z,17.30
2018-09-06T05:54:10.811Z,17.40
2018-09-06T05:56:39.564Z,17.40
2018-09-06T05:59:08.336Z,17.50
2018-09-06T06:01:37.048Z,17.60
2018-09-06T06:04:05.848Z,17.50
2018-09-06T06:06:35.196Z,17.60
2018-09-06T06:09:04.777Z,17.50
2018-09-06T06:11:34.554Z,17.50
2018-09-06T06:14:05.433Z,17.50
2018-09-06T06:16:34.295Z,17.60
2018-09-06T06:19:03.118Z,17.50
2018-09-06T06:21:31.861Z,17.60
2018-09-06T06:24:00.592Z,17.70
2018-09-06T06:26:29.978Z,17.80
2018-09-06T06:28:58.700Z,17.90
2018-09-06T06:31:28.152Z,18.00
2018-09-06T06:33:57.984Z,18.00
2018-09-06T06:36:26.827Z,18.10
2018-09-06T06:38:55.656Z,18.20
2018-09-06T06:41:24.478Z,18.20
2018-09-06T06:43:53.178Z,18.20
2018-09-06T06:46:22.107Z,18.40
2018-09-06T06:48:51.040Z,18.80
2018-09-06T06:51:19.957Z,19.20
2018-09-06T06:53:49.895Z,19.50
2018-09-06T06:56:20.196Z,19.70
2018-09-06T06:58:49.114Z,19.60
2018-09-06T07:01:19.120Z,19.70
2018-09-06T07:03:47.997Z,19.80
2018-09-06T07:06:17.076Z,19.90
2018-09-06T07:08:45.852Z,19.70
2018-09-06T07:11:14.783Z,19.50
2018-09-06T07:13:44.165Z,19.30
2018-09-06T07:16:13.815Z,19.40
2018-09-06T07:18:43.628Z,19.50
2018-09-06T07:21:12.482Z,19.50
2018-09-06T07:23:42.432Z,19.30
2018-09-06T07:26:15.088Z,19.30
2018-09-06T07:35:42.649Z,19.00
2018-09-06T07:38:11.457Z,19.80
2018-09-06T07:40:41.317Z,20.20
2018-09-06T07:43:10.062Z,20.40
2018-09-06T07:45:38.917Z,20.30
2018-09-06T07:48:08.784Z,20.30
2018-09-06T07:50:37.571Z,20.60
2018-09-06T07:53:06.567Z,21.00
2018-09-06T07:55:35.494Z,21.40
2018-09-06T07:58:04.407Z,21.50
2018-09-06T08:00:33.201Z,21.50
2018-09-06T08:03:02.093Z,21.70
2018-09-06T08:05:30.841Z,21.60
2018-09-06T08:08:00.426Z,21.50
2018-09-06T08:10:30.415Z,21.40
2018-09-06T08:12:59.799Z,21.20
2018-09-06T08:15:28.585Z,21.30
2018-09-06T08:17:58.204Z,21.50
2018-09-06T08:20:27.287Z,21.90
2018-09-06T08:22:56.381Z,22.30
2018-09-06T08:25:25.109Z,22.70
2018-09-06T08:27:57.393Z,23.00
2018-09-06T08:30:26.245Z,23.20
2018-09-06T08:32:55.638Z,23.60
2018-09-06T08:36:45.143Z,23.80
2018-09-06T08:39:13.913Z,24.00
2018-09-06T08:41:44.136Z,24.50
2018-09-06T08:44:14.333Z,24.70
2018-09-06T08:46:43.296Z,24.60
2018-09-06T08:49:12.353Z,24.90
2018-09-06T08:51:41.076Z,24.90
2018-09-06T08:54:13.228Z,25.00
2018-09-06T08:56:42.586Z,24.90
2018-09-06T08:59:11.391Z,25.30
2018-09-06T09:01:43.213Z,25.80
2018-09-06T09:04:12.341Z,26.10
2018-09-06T09:06:41.117Z,25.90
2018-09-06T09:09:12.449Z,25.80
2018-09-06T09:11:46.355Z,26.40
2018-09-06T09:14:15.313Z,26.60
2018-09-06T09:16:45.369Z,26.10
2018-09-06T09:19:15.566Z,25.90
2018-09-06T09:21:46.506Z,25.90
2018-09-06T09:24:16.263Z,26.20
2018-09-06T09:26:53.739Z,26.70
2018-09-06T09:29:24.141Z,27.00
2018-09-06T09:31:53.779Z,27.00
2018-09-06T09:34:24.033Z,27.80
2018-09-06T09:36:55.834Z,28.10
2018-09-06T09:39:25.218Z,28.40
2018-09-06T09:41:54.700Z,28.50
2018-09-06T09:44:24.187Z,29.00
2018-09-06T09:49:22.512Z,30.10
2018-09-06T09:51:52.280Z,30.30
2018-09-06T09:54:21.264Z,30.00
2018-09-06T09:56:50.257Z,29.80
2018-09-06T09:59:21.765Z,29.90
2018-09-06T10:02:01.011Z,30.00
2018-09-06T10:06:40.321Z,30.00
2018-09-06T10:09:27.515Z,30.50
2018-09-06T10:11:56.355Z,30.40
2018-09-06T10:14:25.892Z,29.70
2018-09-06T10:16:55.391Z,29.10
2018-09-06T10:19:25.054Z,28.00
2018-09-06T10:21:55.525Z,27.30
2018-09-06T10:24:28.424Z,27.30
2018-09-06T10:26:57.260Z,27.90
2018-09-06T10:29:26.108Z,28.70
2018-09-06T10:31:56.900Z,28.90
2018-09-06T10:34:28.338Z,27.80
2018-09-06T10:36:59.867Z,27.00
2018-09-06T10:39:29.913Z,26.60
2018-09-06T10:41:59.328Z,25.90
2018-09-06T10:44:28.802Z,25.50
2018-09-06T10:46:57.656Z,25.40
2018-09-06T10:49:26.590Z,25.10
2018-09-06T10:51:55.836Z,24.70
2018-09-06T10:55:44.851Z,24.30
2018-09-06T10:58:13.729Z,23.80
2018-09-06T11:00:44.669Z,23.60
2018-09-06T11:03:14.011Z,23.70
2018-09-06T11:05:44.131Z,23.60
2018-09-06T11:08:13.476Z,23.50
2018-09-06T11:10:44.902Z,23.40
2018-09-06T11:13:14.464Z,23.50
2018-09-06T11:15:44.254Z,23.70
2018-09-06T11:18:13.425Z,24.00
2018-09-06T11:20:44.311Z,24.40
2018-09-06T11:23:13.140Z,24.50
2018-09-06T11:25:44.356Z,24.80
2018-09-06T11:28:14.025Z,25.20
2018-09-06T11:30:43.001Z,25.50
2018-09-06T11:33:12.251Z,25.50
2018-09-06T11:38:17.973Z,26.40
2018-09-06T11:40:47.720Z,26.60
2018-09-06T11:43:16.677Z,26.60
2018-09-06T11:45:47.574Z,26.40
2018-09-06T11:48:18.152Z,26.20
2018-09-06T11:50:46.993Z,26.30
2018-09-06T11:53:16.947Z,26.10
2018-09-06T11:55:47.123Z,26.40
2018-09-06T11:58:15.884Z,26.70
2018-09-06T12:00:45.361Z,26.90
2018-09-06T12:03:17.215Z,27.20
2018-09-06T12:05:46.271Z,27.70
2018-09-06T12:08:15.348Z,27.80
2018-09-06T12:10:44.740Z,28.10
2018-09-06T12:13:15.302Z,28.10
2018-09-06T12:15:44.259Z,27.90
2018-09-06T12:18:14.052Z,27.80
2018-09-06T12:20:43.905Z,27.90
2018-09-06T12:23:20.992Z,28.00
2018-09-06T12:25:53.468Z,28.10
2018-09-06T12:28:22.374Z,28.00
2018-09-06T12:30:53.312Z,27.80
2018-09-06T12:33:29.779Z,27.80
2018-09-06T12:35:58.689Z,27.70
2018-09-06T12:38:27.482Z,27.70
2018-09-06T12:40:56.464Z,27.80
2018-09-06T12:43:27.095Z,27.60
2018-09-06T12:45:58.149Z,27.50
2018-09-06T12:48:28.055Z,27.20
2018-09-06T12:50:57.181Z,27.40
2018-09-06T12:53:27.100Z,27.10
2018-09-06T12:55:56.005Z,27.10
2018-09-06T12:58:25.364Z,26.70
2018-09-06T13:00:54.548Z,26.70
2018-09-06T13:03:23.791Z,26.80
2018-09-06T13:05:54.224Z,26.70
2018-09-06T13:08:23.453Z,26.80
2018-09-06T13:10:54.192Z,26.90
2018-09-06T13:13:24.461Z,26.80
2018-09-06T13:15:54.205Z,26.60
2018-09-06T13:18:25.176Z,26.20
2018-09-06T13:20:55.434Z,25.70
2018-09-06T13:23:26.164Z,25.60
2018-09-06T13:25:55.478Z,25.90
2018-09-06T13:28:25.708Z,26.20
2018-09-06T13:30:57.495Z,26.60
2018-09-06T13:33:26.606Z,27.00
2018-09-06T13:36:00.465Z,26.80
2018-09-06T13:38:30.060Z,26.60
2018-09-06T13:41:01.667Z,26.30
2018-09-06T13:43:34.367Z,26.30
2018-09-06T13:46:03.153Z,26.40
2018-09-06T13:48:33.277Z,26.50
2018-09-06T13:51:02.026Z,26.50
2018-09-06T13:53:32.702Z,26.40
2018-09-06T13:56:02.559Z,26.10
2018-09-06T13:58:31.953Z,26.00
2018-09-06T14:01:00.676Z,25.70
2018-09-06T14:03:29.449Z,25.10
2018-09-06T14:05:58.870Z,24.40
2018-09-06T14:08:29.188Z,23.60
2018-09-06T14:11:03.983Z,23.20
2018-09-06T14:13:33.977Z,23.10
2018-09-06T14:16:03.451Z,23.10
2018-09-06T14:18:32.830Z,23.30
2018-09-06T14:21:01.673Z,23.60
2018-09-06T14:23:30.731Z,23.80
2018-09-06T14:26:00.486Z,23.80
2018-09-06T14:28:35.109Z,23.90
2018-09-06T14:31:03.862Z,23.90
2018-09-06T14:33:32.691Z,23.80
2018-09-06T14:36:05.480Z,23.60
2018-09-06T14:38:35.556Z,23.00
2018-09-06T14:41:04.462Z,22.70
2018-09-06T14:43:35.295Z,22.50
2018-09-06T14:46:04.220Z,22.50
2018-09-06T14:48:33.048Z,22.40
2018-09-06T14:51:01.795Z,22.30
2018-09-06T14:53:30.642Z,22.20
2018-09-06T14:55:59.450Z,21.80
2018-09-06T14:58:28.555Z,21.60
2018-09-06T15:00:58.226Z,21.30
2018-09-06T15:03:30.650Z,21.20
2018-09-06T15:06:00.033Z,21.20
2018-09-06T15:08:29.052Z,21.10
2018-09-06T15:10:59.080Z,20.60
2018-09-06T15:13:29.081Z,20.20
2018-09-06T15:15:58.211Z,19.80
2018-09-06T15:18:27.377Z,19.50
2018-09-06T15:20:56.187Z,19.20
2018-09-06T15:23:24.992Z,18.90
2018-09-06T15:25:55.628Z,18.60
2018-09-06T15:28:25.065Z,18.60
2018-09-06T15:30:53.843Z,18.50
2018-09-06T15:33:23.255Z,18.50
2018-09-06T15:35:54.605Z,18.40
2018-09-06T15:38:25.512Z,18.50
2018-09-06T15:40:55.345Z,18.40
2018-09-06T15:43:25.448Z,18.40
2018-09-06T15:45:54.420Z,18.30
2018-09-06T15:48:24.773Z,18.20
2018-09-06T15:50:54.328Z,18.10
2018-09-06T15:53:23.892Z,18.00
2018-09-06T15:55:52.802Z,18.00
2018-09-06T15:58:21.723Z,17.90
2018-09-06T16:00:50.452Z,17.80
2018-09-06T16:03:21.064Z,17.80
2018-09-06T16:05:53.654Z,17.70
2018-09-06T16:08:22.526Z,17.60
2018-09-06T16:10:52.128Z,17.40
2018-09-06T16:13:21.908Z,17.40
2018-09-06T16:15:50.763Z,17.40
2018-09-06T16:18:19.815Z,17.50
2018-09-06T16:20:48.658Z,17.60
2018-09-06T16:23:17.493Z,17.50
2018-09-06T16:25:47.303Z,17.40
2018-09-06T16:28:16.390Z,17.30
2018-09-06T16:30:45.145Z,17.20
2018-09-06T16:33:14.641Z,17.10
2018-09-06T16:35:44.280Z,17.20
2018-09-06T16:38:15.128Z,17.30
2018-09-06T16:40:45.876Z,17.30
2018-09-06T16:43:14.925Z,17.30
2018-09-06T16:45:44.772Z,17.30
2018-09-06T16:48:14.389Z,17.40
2018-09-06T16:50:43.484Z,17.40
2018-09-06T16:53:14.271Z,17.60
2018-09-06T16:55:43.552Z,17.70
2018-09-06T16:58:13.744Z,17.70
2018-09-06T17:00:43.798Z,17.80
2018-09-06T17:03:12.857Z,17.50
2018-09-06T17:05:43.620Z,17.60
2018-09-06T17:08:12.608Z,17.50
2018-09-06T17:10:44.175Z,17.60
2018-09-06T17:13:14.733Z,17.60
2018-09-06T17:15:44.493Z,17.70
2018-09-06T17:18:18.678Z,17.60
2018-09-06T17:20:47.522Z,17.60
2018-09-06T17:23:19.237Z,17.50
2018-09-06T17:25:48.061Z,17.50
2018-09-06T17:28:18.317Z,17.60
2018-09-06T17:30:49.455Z,17.60
2018-09-06T17:33:20.037Z,17.70
2018-09-06T17:35:51.024Z,17.70
2018-09-06T17:38:20.058Z,17.60
2018-09-06T17:40:50.346Z,17.50
2018-09-06T17:43:19.118Z,17.50
2018-09-06T17:45:49.764Z,17.60
2018-09-06T17:48:19.157Z,17.50
2018-09-06T17:50:50.459Z,17.50
2018-09-06T17:53:21.875Z,17.50
2018-09-06T17:55:53.630Z,17.60
2018-09-06T17:58:25.984Z,17.60
2018-09-06T18:01:05.783Z,17.70
2018-09-06T18:03:36.343Z,17.60
2018-09-06T18:06:06.292Z,17.60
2018-09-06T18:08:36.569Z,17.60
2018-09-06T18:11:05.735Z,17.70
2018-09-06T18:13:35.294Z,17.70
2018-09-06T18:16:07.362Z,17.50
2018-09-06T18:18:38.546Z,17.40
2018-09-06T18:21:08.385Z,17.50
2018-09-06T18:23:37.663Z,17.50
2018-09-06T18:26:07.287Z,17.50
2018-09-06T18:28:38.406Z,17.50
2018-09-06T18:31:10.581Z,17.50
2018-09-06T18:33:39.542Z,17.50
2018-09-06T18:36:10.611Z,17.50
2018-09-06T18:38:43.452Z,17.50
2018-09-06T18:41:13.564Z,17.50
2018-09-06T18:43:44.711Z,17.40
2018-09-06T18:46:17.083Z,17.40
2018-09-06T18:48:56.392Z,17.30
2018-09-06T18:51:26.135Z,17.20
2018-09-06T18:53:56.029Z,17.30
2018-09-06T18:56:24.828Z,17.30
2018-09-06T18:58:56.076Z,17.30
2018-09-06T19:01:30.048Z,17.30
2018-09-06T19:04:00.844Z,17.30
2018-09-06T19:06:31.239Z,17.30
2018-09-06T19:09:03.350Z,17.40
2018-09-06T19:11:33.069Z,17.40
2018-09-06T19:14:04.240Z,17.20
2018-09-06T19:16:34.375Z,17.10
2018-09-06T19:19:06.311Z,17.10
2018-09-06T19:21:36.342Z,17.20
2018-09-06T19:24:06.215Z,17.30
2018-09-06T19:26:35.632Z,17.20
2018-09-06T19:29:06.565Z,17.00
2018-09-06T19:31:39.615Z,17.00
2018-09-06T19:34:10.253Z,17.00
2018-09-06T19:36:42.004Z,17.10
2018-09-06T19:39:12.787Z,17.10
2018-09-06T19:41:41.569Z,17.10
2018-09-06T19:44:13.813Z,17.00
2018-09-06T19:46:43.848Z,16.90
2018-09-06T19:49:15.220Z,16.90
2018-09-06T19:51:50.476Z,16.80
2018-09-06T19:54:21.496Z,16.80
2018-09-06T19:56:52.101Z,16.80
2018-09-06T19:59:22.625Z,16.70
2018-09-06T20:01:51.612Z,16.70
2018-09-06T20:04:21.248Z,16.60
2018-09-06T20:06:50.837Z,16.60
2018-09-06T20:09:19.590Z,16.60
2018-09-06T20:11:48.492Z,16.70
2018-09-06T20:14:18.518Z,16.60
2018-09-06T20:16:47.397Z,16.70
2018-09-06T20:19:17.530Z,16.70
2018-09-06T20:21:47.328Z,16.70
2018-09-06T20:24:18.159Z,16.70
2018-09-06T20:26:50.306Z,16.70
2018-09-06T20:29:21.372Z,16.60
2018-09-06T20:31:55.948Z,16.60
2018-09-06T20:34:26.206Z,16.60
2018-09-06T20:36:55.335Z,16.60
2018-09-06T20:39:25.972Z,16.60
2018-09-06T20:42:07.898Z,16.50
2018-09-06T20:44:39.464Z,16.50
2018-09-06T20:47:09.130Z,16.60
2018-09-06T20:49:38.898Z,16.50
2018-09-06T20:52:09.196Z,16.50
2018-09-06T20:54:37.952Z,16.50
2018-09-06T20:57:06.735Z,16.50
2018-09-06T20:59:36.308Z,16.50
2018-09-06T21:04:15.226Z,16.40
2018-09-06T21:06:45.832Z,16.50
2018-09-06T21:09:14.546Z,16.60
2018-09-06T21:11:44.261Z,16.60
2018-09-06T21:14:13.169Z,16.60
2018-09-06T21:16:43.296Z,16.70
2018-09-06T21:19:13.017Z,16.60
2018-09-06T21:21:41.762Z,16.70
2018-09-06T21:24:11.737Z,16.60
2018-09-06T21:26:40.480Z,16.50
2018-09-06T21:29:10.472Z,16.50
2018-09-06T21:31:39.229Z,16.60
2018-09-06T21:34:08.708Z,16.60
2018-09-06T21:36:38.520Z,16.60
2018-09-06T21:39:10.901Z,16.60
2018-09-06T21:41:39.948Z,16.60
2018-09-06T21:44:09.672Z,16.50
2018-09-06T21:46:40.104Z,16.50
2018-09-06T21:49:09.155Z,16.40
2018-09-06T21:51:41.260Z,16.40
2018-09-06T21:54:14.314Z,16.40
2018-09-06T21:56:48.252Z,16.40
2018-09-06T21:59:18.436Z,16.50
2018-09-06T22:01:51.586Z,16.50
2018-09-06T22:04:23.333Z,16.50
2018-09-06T22:06:55.318Z,16.50
2018-09-06T22:09:24.100Z,16.50
2018-09-06T22:11:52.870Z,16.50
2018-09-06T22:14:21.677Z,16.50
2018-09-06T22:16:50.431Z,16.40
2018-09-06T22:19:20.241Z,16.50
2018-09-06T22:21:50.097Z,16.50
2018-09-06T22:24:18.849Z,16.60
2018-09-06T22:26:47.569Z,16.60
2018-09-06T22:29:20.377Z,16.60
2018-09-06T22:31:51.697Z,16.60
2018-09-06T22:34:20.447Z,16.60
2018-09-06T22:36:49.134Z,16.60
2018-09-06T22:39:17.905Z,16.60
2018-09-06T22:41:52.165Z,16.60
2018-09-06T22:44:20.908Z,16.50
2018-09-06T22:46:49.615Z,16.50
2018-09-06T22:49:18.338Z,16.50
2018-09-06T22:51:47.079Z,16.50
2018-09-06T22:54:15.814Z,16.50
2018-09-06T22:56:45.272Z,16.60
2018-09-06T22:59:15.187Z,16.50
2018-09-06T23:01:43.931Z,16.50
2018-09-06T23:04:12.708Z,16.60
2018-09-06T23:06:41.547Z,16.60
2018-09-06T23:09:10.304Z,16.60
2018-09-06T23:11:39.440Z,16.60
2018-09-06T23:14:08.254Z,16.60
2018-09-06T23:16:37.032Z,16.60
2018-09-06T23:19:06.172Z,16.50
2018-09-06T23:21:34.946Z,16.40
2018-09-06T23:24:03.796Z,16.30
2018-09-06T23:26:32.498Z,16.40
2018-09-06T23:29:01.690Z,16.30
2018-09-06T23:31:30.393Z,16.30
2018-09-06T23:33:59.192Z,16.30
2018-09-06T23:36:27.969Z,16.30
2018-09-06T23:38:56.738Z,16.30
2018-09-06T23:41:25.587Z,16.30
2018-09-06T23:43:54.434Z,16.30
2018-09-06T23:46:23.179Z,16.30
2018-09-06T23:48:52.179Z,16.40
2018-09-06T23:51:20.961Z,16.30
2018-09-06T23:53:49.640Z,16.30
2018-09-06T23:56:18.407Z,16.40
2018-09-06T23:58:47.819Z,16.40
